sensor_id;sensor_type;location;lat;lon;timestamp;temperature;humidity
19898;DHT22;10111;50.814;4.572;2022-10-26T00:01:48;13.30;99.90
19898;DHT22;10111;50.814;4.572;2022-10-26T00:04:13;13.30;99.90
19898;DHT22;10111;50.814;4.572;2022-10-26T00:06:39;13.30;99.90
19898;DHT22;10111;50.814;4.572;2022-10-26T00:09:04;13.20;99.90
19898;DHT22;10111;50.814;4.572;2022-10-26T00:11:30;13.30;99.90
19898;DHT22;10111;50.814;4.572;2022-10-26T00:13:56;13.30;99.90
19898;DHT22;10111;50.814;4.572;2022-10-26T00:16:24;13.30;99.90
19898;DHT22;10111;50.814;4.572;2022-10-26T00:18:51;13.30;99.90
19898;DHT22;10111;50.814;4.572;2022-10-26T00:21:17;13.30;99.90
19898;DHT22;10111;50.814;4.572;2022-10-26T00:23:42;13.50;99.90
19898;DHT22;10111;50.814;4.572;2022-10-26T00:26:08;13.30;99.90
19898;DHT22;10111;50.814;4.572;2022-10-26T00:28:34;13.60;99.90
19898;DHT22;10111;50.814;4.572;2022-10-26T00:31:05;13.40;99.90
19898;DHT22;10111;50.814;4.572;2022-10-26T00:33:32;13.30;99.90
19898;DHT22;10111;50.814;4.572;2022-10-26T00:35:58;13.40;99.90
19898;DHT22;10111;50.814;4.572;2022-10-26T00:38:23;13.50;99.90
19898;DHT22;10111;50.814;4.572;2022-10-26T00:40:49;13.50;99.90
19898;DHT22;10111;50.814;4.572;2022-10-26T00:43:36;13.50;99.90
19898;DHT22;10111;50.814;4.572;2022-10-26T00:46:05;13.60;99.90
19898;DHT22;10111;50.814;4.572;2022-10-26T00:48:35;13.60;99.90
19898;DHT22;10111;50.814;4.572;2022-10-26T00:51:05;13.60;99.90
19898;DHT22;10111;50.814;4.572;2022-10-26T00:53:34;13.70;99.90
19898;DHT22;10111;50.814;4.572;2022-10-26T00:56:00;13.80;99.90
19898;DHT22;10111;50.814;4.572;2022-10-26T00:58:26;13.70;99.90
19898;DHT22;10111;50.814;4.572;2022-10-26T01:00:53;13.80;99.90
19898;DHT22;10111;50.814;4.572;2022-10-26T01:03:19;13.80;99.90
19898;DHT22;10111;50.814;4.572;2022-10-26T01:05:46;13.80;99.90
19898;DHT22;10111;50.814;4.572;2022-10-26T01:08:14;13.90;99.90
19898;DHT22;10111;50.814;4.572;2022-10-26T01:10:41;14.00;99.90
19898;DHT22;10111;50.814;4.572;2022-10-26T01:13:07;14.00;99.90
19898;DHT22;10111;50.814;4.572;2022-10-26T01:15:45;14.00;99.90
19898;DHT22;10111;50.814;4.572;2022-10-26T01:18:24;14.10;99.90
19898;DHT22;10111;50.814;4.572;2022-10-26T01:26:21;14.20;99.90
19898;DHT22;10111;50.814;4.572;2022-10-26T01:31:37;14.20;99.90
19898;DHT22;10111;50.814;4.572;2022-10-26T01:34:14;14.40;99.90
19898;DHT22;10111;50.814;4.572;2022-10-26T01:37:06;14.20;99.90
19898;DHT22;10111;50.814;4.572;2022-10-26T01:39:36;14.20;99.90
19898;DHT22;10111;50.814;4.572;2022-10-26T01:42:04;14.20;99.90
19898;DHT22;10111;50.814;4.572;2022-10-26T01:44:38;14.20;99.90
19898;DHT22;10111;50.814;4.572;2022-10-26T01:47:10;14.20;99.90
19898;DHT22;10111;50.814;4.572;2022-10-26T01:49:57;14.30;99.90
19898;DHT22;10111;50.814;4.572;2022-10-26T01:52:24;14.40;99.90
19898;DHT22;10111;50.814;4.572;2022-10-26T01:54:49;14.40;99.90
19898;DHT22;10111;50.814;4.572;2022-10-26T01:57:18;14.50;99.90
19898;DHT22;10111;50.814;4.572;2022-10-26T02:00:08;14.60;99.90
19898;DHT22;10111;50.814;4.572;2022-10-26T02:03:00;14.60;99.90
19898;DHT22;10111;50.814;4.572;2022-10-26T02:13:32;14.80;99.90
19898;DHT22;10111;50.814;4.572;2022-10-26T02:21:17;15.20;99.90
19898;DHT22;10111;50.814;4.572;2022-10-26T02:23:46;14.90;99.90
19898;DHT22;10111;50.814;4.572;2022-10-26T02:26:14;14.90;99.90
19898;DHT22;10111;50.814;4.572;2022-10-26T02:28:44;14.90;99.90
19898;DHT22;10111;50.814;4.572;2022-10-26T02:31:13;14.90;99.90
19898;DHT22;10111;50.814;4.572;2022-10-26T02:33:42;14.90;99.90
19898;DHT22;10111;50.814;4.572;2022-10-26T02:36:11;14.90;99.90
19898;DHT22;10111;50.814;4.572;2022-10-26T02:38:39;14.90;99.90
19898;DHT22;10111;50.814;4.572;2022-10-26T02:41:07;14.90;99.90
19898;DHT22;10111;50.814;4.572;2022-10-26T02:43:38;14.90;99.90
19898;DHT22;10111;50.814;4.572;2022-10-26T02:46:09;14.90;99.90
19898;DHT22;10111;50.814;4.572;2022-10-26T02:48:36;14.90;99.90
19898;DHT22;10111;50.814;4.572;2022-10-26T02:51:43;14.90;99.90
19898;DHT22;10111;50.814;4.572;2022-10-26T02:54:34;14.90;99.90
19898;DHT22;10111;50.814;4.572;2022-10-26T02:57:07;14.90;99.90
19898;DHT22;10111;50.814;4.572;2022-10-26T02:59:36;14.90;99.90
19898;DHT22;10111;50.814;4.572;2022-10-26T03:02:03;14.90;99.90
19898;DHT22;10111;50.814;4.572;2022-10-26T03:04:30;14.90;99.90
19898;DHT22;10111;50.814;4.572;2022-10-26T03:06:56;15.00;99.90
19898;DHT22;10111;50.814;4.572;2022-10-26T03:09:22;15.00;99.90
19898;DHT22;10111;50.814;4.572;2022-10-26T03:11:48;14.90;99.90
19898;DHT22;10111;50.814;4.572;2022-10-26T03:14:14;15.20;99.90
19898;DHT22;10111;50.814;4.572;2022-10-26T03:16:39;14.90;99.90
19898;DHT22;10111;50.814;4.572;2022-10-26T03:19:05;15.00;99.90
19898;DHT22;10111;50.814;4.572;2022-10-26T03:21:30;14.90;99.90
19898;DHT22;10111;50.814;4.572;2022-10-26T03:23:56;14.90;99.90
19898;DHT22;10111;50.814;4.572;2022-10-26T03:26:22;14.90;99.90
19898;DHT22;10111;50.814;4.572;2022-10-26T03:28:47;14.90;99.90
19898;DHT22;10111;50.814;4.572;2022-10-26T03:31:13;14.90;99.90
19898;DHT22;10111;50.814;4.572;2022-10-26T03:33:39;14.90;99.90
19898;DHT22;10111;50.814;4.572;2022-10-26T03:36:04;14.80;99.90
19898;DHT22;10111;50.814;4.572;2022-10-26T03:38:30;14.80;99.90
19898;DHT22;10111;50.814;4.572;2022-10-26T03:40:56;14.90;99.90
19898;DHT22;10111;50.814;4.572;2022-10-26T03:43:21;14.90;99.90
19898;DHT22;10111;50.814;4.572;2022-10-26T03:45:47;14.90;99.90
19898;DHT22;10111;50.814;4.572;2022-10-26T03:48:13;15.10;99.90
19898;DHT22;10111;50.814;4.572;2022-10-26T03:50:39;15.10;99.90
19898;DHT22;10111;50.814;4.572;2022-10-26T03:53:05;15.20;99.90
19898;DHT22;10111;50.814;4.572;2022-10-26T03:55:30;15.20;99.90
19898;DHT22;10111;50.814;4.572;2022-10-26T03:57:56;15.20;99.90
19898;DHT22;10111;50.814;4.572;2022-10-26T04:00:21;15.20;99.90
19898;DHT22;10111;50.814;4.572;2022-10-26T04:02:54;15.20;99.90
19898;DHT22;10111;50.814;4.572;2022-10-26T04:05:20;15.30;99.90
19898;DHT22;10111;50.814;4.572;2022-10-26T04:07:59;15.40;99.90
19898;DHT22;10111;50.814;4.572;2022-10-26T04:10:28;15.20;99.90
19898;DHT22;10111;50.814;4.572;2022-10-26T04:12:54;15.30;99.90
19898;DHT22;10111;50.814;4.572;2022-10-26T04:15:20;15.50;99.90
19898;DHT22;10111;50.814;4.572;2022-10-26T04:17:46;15.50;99.90
19898;DHT22;10111;50.814;4.572;2022-10-26T04:20:12;15.40;99.90
19898;DHT22;10111;50.814;4.572;2022-10-26T04:22:38;15.30;99.90
19898;DHT22;10111;50.814;4.572;2022-10-26T04:25:04;15.40;99.90
19898;DHT22;10111;50.814;4.572;2022-10-26T04:27:30;15.40;99.90
19898;DHT22;10111;50.814;4.572;2022-10-26T04:29:56;15.40;99.90
19898;DHT22;10111;50.814;4.572;2022-10-26T04:32:21;15.40;99.90
19898;DHT22;10111;50.814;4.572;2022-10-26T04:34:47;15.40;99.90
19898;DHT22;10111;50.814;4.572;2022-10-26T04:37:13;15.40;99.90
19898;DHT22;10111;50.814;4.572;2022-10-26T04:39:38;15.40;99.90
19898;DHT22;10111;50.814;4.572;2022-10-26T04:42:04;15.30;99.90
19898;DHT22;10111;50.814;4.572;2022-10-26T04:44:30;15.30;99.90
19898;DHT22;10111;50.814;4.572;2022-10-26T04:46:55;15.30;99.90
19898;DHT22;10111;50.814;4.572;2022-10-26T04:49:21;15.30;99.90
19898;DHT22;10111;50.814;4.572;2022-10-26T04:51:46;15.30;99.90
19898;DHT22;10111;50.814;4.572;2022-10-26T04:54:12;15.30;99.90
19898;DHT22;10111;50.814;4.572;2022-10-26T04:56:37;15.30;99.90
19898;DHT22;10111;50.814;4.572;2022-10-26T04:59:03;15.40;99.90
19898;DHT22;10111;50.814;4.572;2022-10-26T05:01:30;15.40;99.90
19898;DHT22;10111;50.814;4.572;2022-10-26T05:03:56;15.40;99.90
19898;DHT22;10111;50.814;4.572;2022-10-26T05:06:22;15.40;99.90
19898;DHT22;10111;50.814;4.572;2022-10-26T05:08:48;15.40;99.90
19898;DHT22;10111;50.814;4.572;2022-10-26T05:11:13;15.50;99.90
19898;DHT22;10111;50.814;4.572;2022-10-26T05:13:39;15.50;99.90
19898;DHT22;10111;50.814;4.572;2022-10-26T05:16:05;15.50;99.90
19898;DHT22;10111;50.814;4.572;2022-10-26T05:18:30;15.50;99.90
19898;DHT22;10111;50.814;4.572;2022-10-26T05:20:56;15.50;99.90
19898;DHT22;10111;50.814;4.572;2022-10-26T05:23:22;15.50;99.90
19898;DHT22;10111;50.814;4.572;2022-10-26T05:25:48;15.60;99.90
19898;DHT22;10111;50.814;4.572;2022-10-26T05:28:15;15.50;99.90
19898;DHT22;10111;50.814;4.572;2022-10-26T05:30:42;15.40;99.90
19898;DHT22;10111;50.814;4.572;2022-10-26T05:33:09;15.40;99.90
19898;DHT22;10111;50.814;4.572;2022-10-26T05:35:35;15.40;99.90
19898;DHT22;10111;50.814;4.572;2022-10-26T05:38:14;15.30;99.90
19898;DHT22;10111;50.814;4.572;2022-10-26T05:40:50;15.40;99.90
19898;DHT22;10111;50.814;4.572;2022-10-26T05:43:17;15.30;99.90
19898;DHT22;10111;50.814;4.572;2022-10-26T05:45:43;15.30;99.90
19898;DHT22;10111;50.814;4.572;2022-10-26T05:48:08;15.40;99.90
19898;DHT22;10111;50.814;4.572;2022-10-26T05:50:34;15.30;99.90
19898;DHT22;10111;50.814;4.572;2022-10-26T05:53:00;15.30;99.90
19898;DHT22;10111;50.814;4.572;2022-10-26T05:55:25;15.30;99.90
19898;DHT22;10111;50.814;4.572;2022-10-26T05:57:51;15.20;99.90
19898;DHT22;10111;50.814;4.572;2022-10-26T06:00:20;15.20;99.90
19898;DHT22;10111;50.814;4.572;2022-10-26T06:05:24;15.10;99.90
19898;DHT22;10111;50.814;4.572;2022-10-26T06:07:51;15.10;99.90
19898;DHT22;10111;50.814;4.572;2022-10-26T06:10:17;15.00;99.90
19898;DHT22;10111;50.814;4.572;2022-10-26T06:12:43;15.00;99.90
19898;DHT22;10111;50.814;4.572;2022-10-26T06:15:19;15.00;99.90
19898;DHT22;10111;50.814;4.572;2022-10-26T06:20:33;14.90;99.90
19898;DHT22;10111;50.814;4.572;2022-10-26T06:28:49;14.90;99.90
19898;DHT22;10111;50.814;4.572;2022-10-26T06:31:16;14.90;99.90
19898;DHT22;10111;50.814;4.572;2022-10-26T06:33:42;15.00;99.90
19898;DHT22;10111;50.814;4.572;2022-10-26T06:36:20;15.00;99.90
19898;DHT22;10111;50.814;4.572;2022-10-26T06:38:48;15.00;99.90
19898;DHT22;10111;50.814;4.572;2022-10-26T06:41:15;15.00;99.90
19898;DHT22;10111;50.814;4.572;2022-10-26T06:43:43;15.00;99.90
19898;DHT22;10111;50.814;4.572;2022-10-26T06:46:15;15.00;99.90
19898;DHT22;10111;50.814;4.572;2022-10-26T06:48:57;15.10;99.90
19898;DHT22;10111;50.814;4.572;2022-10-26T06:51:26;15.10;99.90
19898;DHT22;10111;50.814;4.572;2022-10-26T06:54:29;15.10;99.90
19898;DHT22;10111;50.814;4.572;2022-10-26T06:56:56;15.20;99.90
19898;DHT22;10111;50.814;4.572;2022-10-26T07:02:14;15.10;99.90
19898;DHT22;10111;50.814;4.572;2022-10-26T07:04:40;15.20;99.90
19898;DHT22;10111;50.814;4.572;2022-10-26T07:07:08;15.20;99.90
19898;DHT22;10111;50.814;4.572;2022-10-26T07:09:36;15.20;99.90
19898;DHT22;10111;50.814;4.572;2022-10-26T07:12:01;15.20;99.90
19898;DHT22;10111;50.814;4.572;2022-10-26T07:14:27;15.20;99.90
19898;DHT22;10111;50.814;4.572;2022-10-26T07:16:52;15.20;99.90
19898;DHT22;10111;50.814;4.572;2022-10-26T07:19:19;15.40;99.90
19898;DHT22;10111;50.814;4.572;2022-10-26T07:21:44;15.30;99.90
19898;DHT22;10111;50.814;4.572;2022-10-26T07:24:10;15.30;99.90
19898;DHT22;10111;50.814;4.572;2022-10-26T07:26:35;15.30;99.90
19898;DHT22;10111;50.814;4.572;2022-10-26T07:29:01;15.30;99.90
19898;DHT22;10111;50.814;4.572;2022-10-26T07:31:27;15.30;99.90
19898;DHT22;10111;50.814;4.572;2022-10-26T07:33:53;15.30;99.90
19898;DHT22;10111;50.814;4.572;2022-10-26T07:36:19;15.40;99.90
19898;DHT22;10111;50.814;4.572;2022-10-26T07:38:44;15.40;99.90
19898;DHT22;10111;50.814;4.572;2022-10-26T07:41:10;15.30;99.90
19898;DHT22;10111;50.814;4.572;2022-10-26T07:43:36;15.40;99.90
19898;DHT22;10111;50.814;4.572;2022-10-26T07:46:01;15.50;99.90
19898;DHT22;10111;50.814;4.572;2022-10-26T07:48:27;15.50;99.90
19898;DHT22;10111;50.814;4.572;2022-10-26T07:50:52;15.80;99.90
19898;DHT22;10111;50.814;4.572;2022-10-26T07:53:18;15.80;99.90
19898;DHT22;10111;50.814;4.572;2022-10-26T07:55:52;15.90;99.90
19898;DHT22;10111;50.814;4.572;2022-10-26T07:58:17;16.00;99.90
19898;DHT22;10111;50.814;4.572;2022-10-26T08:00:48;16.10;99.90
19898;DHT22;10111;50.814;4.572;2022-10-26T08:03:14;16.20;99.90
19898;DHT22;10111;50.814;4.572;2022-10-26T08:05:39;16.30;99.90
19898;DHT22;10111;50.814;4.572;2022-10-26T08:08:05;16.40;99.90
19898;DHT22;10111;50.814;4.572;2022-10-26T08:10:30;16.50;99.90
19898;DHT22;10111;50.814;4.572;2022-10-26T08:12:56;16.50;99.90
19898;DHT22;10111;50.814;4.572;2022-10-26T08:15:22;16.60;99.90
19898;DHT22;10111;50.814;4.572;2022-10-26T08:17:47;16.70;99.90
19898;DHT22;10111;50.814;4.572;2022-10-26T08:20:13;16.80;99.90
19898;DHT22;10111;50.814;4.572;2022-10-26T08:22:38;16.80;99.90
19898;DHT22;10111;50.814;4.572;2022-10-26T08:25:04;16.90;99.90
19898;DHT22;10111;50.814;4.572;2022-10-26T08:27:30;16.90;99.90
19898;DHT22;10111;50.814;4.572;2022-10-26T08:29:55;17.10;99.90
19898;DHT22;10111;50.814;4.572;2022-10-26T08:32:21;17.20;99.90
19898;DHT22;10111;50.814;4.572;2022-10-26T08:34:47;17.30;99.90
19898;DHT22;10111;50.814;4.572;2022-10-26T08:37:12;17.40;99.90
19898;DHT22;10111;50.814;4.572;2022-10-26T08:39:38;17.60;99.90
19898;DHT22;10111;50.814;4.572;2022-10-26T08:42:11;17.70;99.90
19898;DHT22;10111;50.814;4.572;2022-10-26T08:44:50;17.80;99.90
19898;DHT22;10111;50.814;4.572;2022-10-26T08:47:25;17.90;99.90
19898;DHT22;10111;50.814;4.572;2022-10-26T08:50:03;17.90;99.90
19898;DHT22;10111;50.814;4.572;2022-10-26T08:52:37;17.90;99.90
19898;DHT22;10111;50.814;4.572;2022-10-26T08:55:10;18.00;99.90
19898;DHT22;10111;50.814;4.572;2022-10-26T08:57:40;18.20;99.90
19898;DHT22;10111;50.814;4.572;2022-10-26T09:00:12;18.30;99.90
19898;DHT22;10111;50.814;4.572;2022-10-26T09:02:39;18.40;99.90
19898;DHT22;10111;50.814;4.572;2022-10-26T09:05:14;18.60;99.90
19898;DHT22;10111;50.814;4.572;2022-10-26T09:07:55;18.50;99.90
19898;DHT22;10111;50.814;4.572;2022-10-26T09:10:32;18.60;99.90
19898;DHT22;10111;50.814;4.572;2022-10-26T09:16:13;18.70;99.90
19898;DHT22;10111;50.814;4.572;2022-10-26T09:24:43;18.80;99.90
19898;DHT22;10111;50.814;4.572;2022-10-26T09:29:40;18.70;99.90
19898;DHT22;10111;50.814;4.572;2022-10-26T09:32:19;18.70;99.90
19898;DHT22;10111;50.814;4.572;2022-10-26T09:34:51;18.80;99.90
19898;DHT22;10111;50.814;4.572;2022-10-26T09:37:27;18.90;99.90
19898;DHT22;10111;50.814;4.572;2022-10-26T09:39:59;19.00;99.90
19898;DHT22;10111;50.814;4.572;2022-10-26T09:42:42;18.90;99.90
19898;DHT22;10111;50.814;4.572;2022-10-26T09:45:37;19.00;99.90
19898;DHT22;10111;50.814;4.572;2022-10-26T09:48:18;18.90;99.90
19898;DHT22;10111;50.814;4.572;2022-10-26T09:50:47;18.90;99.90
19898;DHT22;10111;50.814;4.572;2022-10-26T09:53:14;18.90;99.90
19898;DHT22;10111;50.814;4.572;2022-10-26T09:55:45;18.90;99.90
19898;DHT22;10111;50.814;4.572;2022-10-26T09:58:19;19.10;99.90
19898;DHT22;10111;50.814;4.572;2022-10-26T10:00:45;19.00;99.90
19898;DHT22;10111;50.814;4.572;2022-10-26T10:03:31;18.90;99.90
19898;DHT22;10111;50.814;4.572;2022-10-26T10:06:29;18.90;99.90
19898;DHT22;10111;50.814;4.572;2022-10-26T10:09:16;18.90;99.90
19898;DHT22;10111;50.814;4.572;2022-10-26T10:11:54;18.90;99.90
19898;DHT22;10111;50.814;4.572;2022-10-26T10:16:54;19.00;99.90
19898;DHT22;10111;50.814;4.572;2022-10-26T10:19:22;19.00;99.90
19898;DHT22;10111;50.814;4.572;2022-10-26T10:21:50;19.10;99.90
19898;DHT22;10111;50.814;4.572;2022-10-26T10:24:27;19.20;99.90
19898;DHT22;10111;50.814;4.572;2022-10-26T10:27:02;19.10;99.90
19898;DHT22;10111;50.814;4.572;2022-10-26T10:29:30;19.10;99.90
19898;DHT22;10111;50.814;4.572;2022-10-26T10:32:01;19.00;99.90
19898;DHT22;10111;50.814;4.572;2022-10-26T10:34:31;19.10;99.90
19898;DHT22;10111;50.814;4.572;2022-10-26T10:36:57;19.10;99.90
19898;DHT22;10111;50.814;4.572;2022-10-26T10:39:34;19.20;99.90
19898;DHT22;10111;50.814;4.572;2022-10-26T10:42:02;19.20;99.90
19898;DHT22;10111;50.814;4.572;2022-10-26T10:44:28;19.30;99.90
19898;DHT22;10111;50.814;4.572;2022-10-26T10:47:03;19.20;99.90
19898;DHT22;10111;50.814;4.572;2022-10-26T10:49:30;19.30;99.90
19898;DHT22;10111;50.814;4.572;2022-10-26T10:51:56;19.40;99.90
19898;DHT22;10111;50.814;4.572;2022-10-26T10:54:31;19.30;99.90
19898;DHT22;10111;50.814;4.572;2022-10-26T10:57:26;19.40;99.90
19898;DHT22;10111;50.814;4.572;2022-10-26T11:00:05;19.40;99.90
19898;DHT22;10111;50.814;4.572;2022-10-26T11:02:55;19.50;99.90
19898;DHT22;10111;50.814;4.572;2022-10-26T11:08:32;19.50;99.90
19898;DHT22;10111;50.814;4.572;2022-10-26T11:13:54;19.60;99.90
19898;DHT22;10111;50.814;4.572;2022-10-26T11:16:38;19.50;99.90
19898;DHT22;10111;50.814;4.572;2022-10-26T11:21:56;19.60;99.90
19898;DHT22;10111;50.814;4.572;2022-10-26T11:24:38;19.60;99.90
19898;DHT22;10111;50.814;4.572;2022-10-26T11:27:38;19.60;99.90
19898;DHT22;10111;50.814;4.572;2022-10-26T11:30:17;19.60;99.90
19898;DHT22;10111;50.814;4.572;2022-10-26T11:32:59;19.60;99.90
19898;DHT22;10111;50.814;4.572;2022-10-26T11:35:36;19.60;99.90
19898;DHT22;10111;50.814;4.572;2022-10-26T11:38:25;19.50;99.90
19898;DHT22;10111;50.814;4.572;2022-10-26T11:41:05;19.50;99.90
19898;DHT22;10111;50.814;4.572;2022-10-26T11:43:40;19.50;99.90
19898;DHT22;10111;50.814;4.572;2022-10-26T11:46:26;19.40;99.90
19898;DHT22;10111;50.814;4.572;2022-10-26T11:49:29;19.40;99.90
19898;DHT22;10111;50.814;4.572;2022-10-26T11:52:07;19.60;99.90
19898;DHT22;10111;50.814;4.572;2022-10-26T11:54:53;19.70;99.90
19898;DHT22;10111;50.814;4.572;2022-10-26T11:57:21;19.70;99.90
19898;DHT22;10111;50.814;4.572;2022-10-26T11:59:54;19.80;99.90
19898;DHT22;10111;50.814;4.572;2022-10-26T12:02:24;19.90;99.90
19898;DHT22;10111;50.814;4.572;2022-10-26T12:05:05;19.80;99.90
19898;DHT22;10111;50.814;4.572;2022-10-26T12:07:35;19.90;99.90
19898;DHT22;10111;50.814;4.572;2022-10-26T12:10:05;20.00;99.90
19898;DHT22;10111;50.814;4.572;2022-10-26T12:12:44;20.10;99.90
19898;DHT22;10111;50.814;4.572;2022-10-26T12:18:49;20.30;99.90
19898;DHT22;10111;50.814;4.572;2022-10-26T12:21:17;20.20;99.90
19898;DHT22;10111;50.814;4.572;2022-10-26T12:24:00;20.10;99.90
19898;DHT22;10111;50.814;4.572;2022-10-26T12:34:11;20.20;99.90
19898;DHT22;10111;50.814;4.572;2022-10-26T12:36:49;20.10;99.90
19898;DHT22;10111;50.814;4.572;2022-10-26T12:39:48;20.10;99.90
19898;DHT22;10111;50.814;4.572;2022-10-26T12:47:09;20.00;99.90
19898;DHT22;10111;50.814;4.572;2022-10-26T12:50:00;20.10;99.90
19898;DHT22;10111;50.814;4.572;2022-10-26T12:52:46;20.00;99.90
19898;DHT22;10111;50.814;4.572;2022-10-26T12:55:38;19.90;99.90
19898;DHT22;10111;50.814;4.572;2022-10-26T13:03:39;19.90;99.90
19898;DHT22;10111;50.814;4.572;2022-10-26T13:06:44;19.80;99.90
19898;DHT22;10111;50.814;4.572;2022-10-26T13:09:19;19.90;99.90
19898;DHT22;10111;50.814;4.572;2022-10-26T13:11:56;20.00;99.90
19898;DHT22;10111;50.814;4.572;2022-10-26T13:14:26;20.00;99.90
19898;DHT22;10111;50.814;4.572;2022-10-26T13:16:53;20.10;99.90
19898;DHT22;10111;50.814;4.572;2022-10-26T13:19:40;20.10;99.90
19898;DHT22;10111;50.814;4.572;2022-10-26T13:22:22;20.20;99.90
19898;DHT22;10111;50.814;4.572;2022-10-26T13:24:54;20.30;99.90
19898;DHT22;10111;50.814;4.572;2022-10-26T13:27:38;20.30;99.90
19898;DHT22;10111;50.814;4.572;2022-10-26T13:30:19;20.20;99.90
19898;DHT22;10111;50.814;4.572;2022-10-26T13:32:52;20.10;99.90
19898;DHT22;10111;50.814;4.572;2022-10-26T13:35:20;20.00;99.90
19898;DHT22;10111;50.814;4.572;2022-10-26T13:37:50;20.10;99.90
19898;DHT22;10111;50.814;4.572;2022-10-26T13:40:20;20.00;99.90
19898;DHT22;10111;50.814;4.572;2022-10-26T13:45:22;20.30;99.90
19898;DHT22;10111;50.814;4.572;2022-10-26T13:48:00;20.10;99.90
19898;DHT22;10111;50.814;4.572;2022-10-26T13:50:32;20.10;99.90
19898;DHT22;10111;50.814;4.572;2022-10-26T13:53:06;20.20;99.90
19898;DHT22;10111;50.814;4.572;2022-10-26T13:56:23;20.30;99.90
19898;DHT22;10111;50.814;4.572;2022-10-26T13:58:33;20.20;99.90
19898;DHT22;10111;50.814;4.572;2022-10-26T14:01:27;20.20;99.90
19898;DHT22;10111;50.814;4.572;2022-10-26T14:03:53;20.30;99.90
19898;DHT22;10111;50.814;4.572;2022-10-26T14:06:36;20.20;99.90
19898;DHT22;10111;50.814;4.572;2022-10-26T14:09:15;20.20;99.90
19898;DHT22;10111;50.814;4.572;2022-10-26T14:11:49;20.40;99.90
19898;DHT22;10111;50.814;4.572;2022-10-26T14:14:44;20.30;99.90
19898;DHT22;10111;50.814;4.572;2022-10-26T14:17:21;20.30;99.90
19898;DHT22;10111;50.814;4.572;2022-10-26T14:19:49;20.50;99.90
19898;DHT22;10111;50.814;4.572;2022-10-26T14:22:23;20.40;99.90
19898;DHT22;10111;50.814;4.572;2022-10-26T14:24:54;20.30;99.90
19898;DHT22;10111;50.814;4.572;2022-10-26T14:27:22;20.40;99.90
19898;DHT22;10111;50.814;4.572;2022-10-26T14:29:50;20.40;99.90
19898;DHT22;10111;50.814;4.572;2022-10-26T14:32:30;20.40;99.90
19898;DHT22;10111;50.814;4.572;2022-10-26T14:35:01;20.50;99.90
19898;DHT22;10111;50.814;4.572;2022-10-26T14:37:45;20.50;99.90
19898;DHT22;10111;50.814;4.572;2022-10-26T14:40:19;20.60;99.90
19898;DHT22;10111;50.814;4.572;2022-10-26T14:42:50;20.70;99.90
19898;DHT22;10111;50.814;4.572;2022-10-26T14:45:35;20.70;99.90
19898;DHT22;10111;50.814;4.572;2022-10-26T14:48:03;20.70;99.90
19898;DHT22;10111;50.814;4.572;2022-10-26T14:50:30;20.60;99.90
19898;DHT22;10111;50.814;4.572;2022-10-26T14:53:12;20.70;99.90
19898;DHT22;10111;50.814;4.572;2022-10-26T14:55:48;20.70;99.90
19898;DHT22;10111;50.814;4.572;2022-10-26T14:58:38;20.80;99.90
19898;DHT22;10111;50.814;4.572;2022-10-26T15:04:06;20.70;99.90
19898;DHT22;10111;50.814;4.572;2022-10-26T15:06:41;20.60;99.90
19898;DHT22;10111;50.814;4.572;2022-10-26T15:09:28;20.50;99.90
19898;DHT22;10111;50.814;4.572;2022-10-26T15:11:54;20.60;99.90
19898;DHT22;10111;50.814;4.572;2022-10-26T15:14:19;20.40;99.90
19898;DHT22;10111;50.814;4.572;2022-10-26T15:16:52;20.30;99.90
19898;DHT22;10111;50.814;4.572;2022-10-26T15:19:19;20.30;99.90
19898;DHT22;10111;50.814;4.572;2022-10-26T15:21:49;20.20;99.90
19898;DHT22;10111;50.814;4.572;2022-10-26T15:24:31;20.20;99.90
19898;DHT22;10111;50.814;4.572;2022-10-26T15:26:57;20.20;99.90
19898;DHT22;10111;50.814;4.572;2022-10-26T15:30:07;20.20;99.90
19898;DHT22;10111;50.814;4.572;2022-10-26T15:32:34;20.20;99.90
19898;DHT22;10111;50.814;4.572;2022-10-26T15:35:22;20.20;99.90
19898;DHT22;10111;50.814;4.572;2022-10-26T15:37:50;20.10;99.90
19898;DHT22;10111;50.814;4.572;2022-10-26T15:40:16;20.10;99.90
19898;DHT22;10111;50.814;4.572;2022-10-26T15:42:42;20.20;99.90
19898;DHT22;10111;50.814;4.572;2022-10-26T15:45:32;20.20;99.90
19898;DHT22;10111;50.814;4.572;2022-10-26T15:48:17;20.20;99.90
19898;DHT22;10111;50.814;4.572;2022-10-26T15:50:43;20.10;99.90
19898;DHT22;10111;50.814;4.572;2022-10-26T15:53:15;20.00;99.90
19898;DHT22;10111;50.814;4.572;2022-10-26T15:55:42;19.90;99.90
19898;DHT22;10111;50.814;4.572;2022-10-26T15:58:09;19.80;99.90
19898;DHT22;10111;50.814;4.572;2022-10-26T16:00:35;19.70;99.90
19898;DHT22;10111;50.814;4.572;2022-10-26T16:03:02;19.60;99.90
19898;DHT22;10111;50.814;4.572;2022-10-26T16:05:28;19.60;99.90
19898;DHT22;10111;50.814;4.572;2022-10-26T16:07:53;19.60;99.90
19898;DHT22;10111;50.814;4.572;2022-10-26T16:10:23;19.50;99.90
19898;DHT22;10111;50.814;4.572;2022-10-26T16:12:50;19.50;99.90
19898;DHT22;10111;50.814;4.572;2022-10-26T16:15:18;19.50;99.90
19898;DHT22;10111;50.814;4.572;2022-10-26T16:17:45;19.50;99.90
19898;DHT22;10111;50.814;4.572;2022-10-26T16:20:14;19.40;99.90
19898;DHT22;10111;50.814;4.572;2022-10-26T16:22:40;19.30;99.90
19898;DHT22;10111;50.814;4.572;2022-10-26T16:25:11;19.30;99.90
19898;DHT22;10111;50.814;4.572;2022-10-26T16:27:37;19.10;99.90
19898;DHT22;10111;50.814;4.572;2022-10-26T16:30:04;19.00;99.90
19898;DHT22;10111;50.814;4.572;2022-10-26T16:32:29;18.90;99.90
19898;DHT22;10111;50.814;4.572;2022-10-26T16:34:55;18.80;99.90
19898;DHT22;10111;50.814;4.572;2022-10-26T16:37:20;18.80;99.90
19898;DHT22;10111;50.814;4.572;2022-10-26T16:39:46;18.70;99.90
19898;DHT22;10111;50.814;4.572;2022-10-26T16:42:11;18.60;99.90
19898;DHT22;10111;50.814;4.572;2022-10-26T16:44:37;18.50;99.90
19898;DHT22;10111;50.814;4.572;2022-10-26T16:47:03;18.50;99.90
19898;DHT22;10111;50.814;4.572;2022-10-26T16:49:28;18.40;99.90
19898;DHT22;10111;50.814;4.572;2022-10-26T16:51:54;18.30;99.90
19898;DHT22;10111;50.814;4.572;2022-10-26T16:54:21;18.30;99.90
19898;DHT22;10111;50.814;4.572;2022-10-26T16:56:47;18.30;99.90
19898;DHT22;10111;50.814;4.572;2022-10-26T16:59:13;18.30;99.90
19898;DHT22;10111;50.814;4.572;2022-10-26T17:01:39;18.30;99.90
19898;DHT22;10111;50.814;4.572;2022-10-26T17:04:04;18.30;99.90
19898;DHT22;10111;50.814;4.572;2022-10-26T17:06:30;18.30;99.90
19898;DHT22;10111;50.814;4.572;2022-10-26T17:08:56;18.20;99.90
19898;DHT22;10111;50.814;4.572;2022-10-26T17:11:21;18.30;99.90
19898;DHT22;10111;50.814;4.572;2022-10-26T17:13:51;18.40;99.90
19898;DHT22;10111;50.814;4.572;2022-10-26T17:16:19;18.20;99.90
19898;DHT22;10111;50.814;4.572;2022-10-26T17:18:45;18.10;99.90
19898;DHT22;10111;50.814;4.572;2022-10-26T17:21:13;18.00;99.90